Time;durP1;ratioP1;P1;durP2;ratioP2;P2;SDS_P1;SDS_P2;PMS_P1;PMS_P2;Temp;Humidity;BMP_temperature;BMP_pressure;BME280_temperature;BME280_humidity;BME280_pressure;Samples;Min_cycle;Max_cycle;Signal;HPM_P1;HPM_P2
2023/10/27 00:04:11;;;;;;;7.87;6.10;;;8.30;99.90;;;;;;9819330;30;20233;-78
2023/10/27 00:09:35;;;;;;;9.07;6.77;;;8.30;99.90;;;;;;9824350;30;20262;-79
2023/10/27 00:14:57;;;;;;;8.73;6.50;;;8.30;99.90;;;;;;9831907;30;20209;-80
2023/10/27 00:20:18;;;;;;;7.43;6.37;;;8.40;99.90;;;;;;9819972;30;20428;-81
2023/10/27 00:25:39;;;;;;;6.50;5.43;;;8.40;99.90;;;;;;9820021;30;20394;-81
2023/10/27 00:31:03;;;;;;;8.00;5.43;;;8.40;99.90;;;;;;9820152;30;20278;-81
2023/10/27 00:36:25;;;;;;;9.13;5.70;;;8.30;99.90;;;;;;9819799;30;20197;-80
2023/10/27 00:41:45;;;;;;;8.73;6.40;;;8.40;1.00;;;;;;9819619;30;20550;-80
2023/10/27 00:47:08;;;;;;;9.57;6.40;;;8.40;1.00;;;;;;9818777;30;20199;-80
2023/10/27 00:52:30;;;;;;;10.70;7.77;;;8.40;99.90;;;;;;9818571;30;20255;-79
2023/10/27 00:57:54;;;;;;;8.97;6.67;;;8.40;99.90;;;;;;9817642;30;20245;-80
2023/10/27 01:03:16;;;;;;;9.17;6.63;;;8.40;1.00;;;;;;9816197;30;20264;-80
2023/10/27 01:08:38;;;;;;;9.30;6.70;;;8.40;99.90;;;;;;9817504;30;20204;-81
2023/10/27 01:14:00;;;;;;;8.13;6.23;;;8.30;99.90;;;;;;9818531;30;20281;-81
2023/10/27 01:19:21;;;;;;;7.80;5.33;;;8.40;99.90;;;;;;9818218;30;20536;-79
2023/10/27 01:24:43;;;;;;;5.93;4.97;;;8.40;1.00;;;;;;9818533;30;20201;-81
2023/10/27 01:30:04;;;;;;;6.43;4.70;;;8.40;99.90;;;;;;9817254;30;20285;-81
2023/10/27 01:35:25;;;;;;;5.87;4.40;;;8.40;1.00;;;;;;9817374;30;20198;-79
2023/10/27 01:40:47;;;;;;;5.63;4.23;;;8.40;1.00;;;;;;9817234;30;20234;-80
2023/10/27 01:46:08;;;;;;;4.90;4.23;;;8.40;1.00;;;;;;9817350;30;20394;-77
2023/10/27 01:51:29;;;;;;;8.03;4.90;;;8.40;1.00;;;;;;9817662;30;20565;-76
2023/10/27 01:56:50;;;;;;;5.67;4.97;;;8.40;1.00;;;;;;9817155;30;20201;-79
2023/10/27 02:02:13;;;;;;;6.37;4.37;;;8.30;1.00;;;;;;9816581;30;20240;-81
2023/10/27 02:07:35;;;;;;;5.53;4.60;;;8.30;1.00;;;;;;9817318;30;20221;-79
2023/10/27 02:12:56;;;;;;;6.40;4.20;;;8.30;1.00;;;;;;9816827;30;20224;-81
2023/10/27 02:18:17;;;;;;;6.10;4.03;;;8.30;1.00;;;;;;9816821;30;20226;-81
2023/10/27 02:23:39;;;;;;;7.03;4.70;;;8.30;1.00;;;;;;9803804;30;20208;-80
2023/10/27 02:29:00;;;;;;;5.00;3.40;;;8.30;1.00;;;;;;9816743;30;20211;-80
2023/10/27 02:34:22;;;;;;;4.00;3.03;;;8.20;1.00;;;;;;9817294;30;20197;-81
2023/10/27 02:39:43;;;;;;;3.10;2.57;;;8.20;1.00;;;;;;9805266;30;20614;-81
2023/10/27 02:45:06;;;;;;;4.00;2.23;;;8.10;1.00;;;;;;9823543;30;20507;-80
2023/10/27 02:50:28;;;;;;;2.47;1.40;;;8.10;1.00;;;;;;9823066;30;20267;-80
2023/10/27 02:55:50;;;;;;;2.13;1.50;;;8.00;1.00;;;;;;9823493;30;20277;-80
2023/10/27 03:01:15;;;;;;;2.50;1.53;;;8.00;99.90;;;;;;9804196;30;20259;-79
2023/10/27 03:06:36;;;;;;;2.37;1.50;;;7.90;1.00;;;;;;9808329;30;20202;-80
2023/10/27 03:11:57;;;;;;;3.10;1.27;;;7.90;1.00;;;;;;9788648;30;20291;-80
2023/10/27 03:17:18;;;;;;;2.70;1.80;;;7.90;99.90;;;;;;9812907;30;20402;-80
2023/10/27 03:22:40;;;;;;;3.03;1.60;;;8.00;1.00;;;;;;9820872;30;20242;-80
2023/10/27 03:28:01;;;;;;;3.57;1.87;;;8.10;1.00;;;;;;9821279;30;20199;-80
2023/10/27 03:33:24;;;;;;;4.63;2.60;;;8.10;99.90;;;;;;9821509;30;20216;-78
2023/10/27 03:38:45;;;;;;;2.20;2.00;;;8.10;99.90;;;;;;9821521;30;20296;-76
2023/10/27 03:44:06;;;;;;;2.07;1.87;;;8.10;99.90;;;;;;9821500;30;20435;-78
2023/10/27 03:49:27;;;;;;;2.17;1.97;;;8.00;99.90;;;;;;9820866;30;20230;-79
2023/10/27 03:54:48;;;;;;;3.37;1.83;;;8.00;1.00;;;;;;9820207;30;20218;-80
2023/10/27 04:00:10;;;;;;;1.90;1.60;;;8.00;1.00;;;;;;9820355;30;20251;-81
2023/10/27 04:05:34;;;;;;;3.30;1.93;;;8.00;34.70;;;;;;9820038;30;20369;-80
2023/10/27 04:10:55;;;;;;;2.20;2.00;;;8.00;99.90;;;;;;9820567;30;20235;-79
2023/10/27 04:16:17;;;;;;;5.07;1.90;;;8.00;53.60;;;;;;9820329;30;20407;-80
2023/10/27 04:21:38;;;;;;;2.90;2.10;;;8.00;1.00;;;;;;9818941;30;20447;-80
2023/10/27 04:27:00;;;;;;;3.67;1.40;;;7.90;99.90;;;;;;9822550;30;20298;-80
2023/10/27 04:32:21;;;;;;;2.47;1.80;;;7.80;99.90;;;;;;9821915;30;20382;-80
2023/10/27 04:37:42;;;;;;;3.10;2.20;;;7.70;99.90;;;;;;9806085;30;20217;-80
2023/10/27 04:43:04;;;;;;;5.33;2.17;;;7.70;99.90;;;;;;9818860;30;20217;-76
2023/10/27 04:48:26;;;;;;;5.07;2.90;;;7.70;99.90;;;;;;9818009;30;20210;-76
2023/10/27 04:53:47;;;;;;;5.07;2.40;;;7.70;1.00;;;;;;9782182;30;20200;-76
2023/10/27 04:59:09;;;;;;;4.47;2.57;;;7.70;1.00;;;;;;9802218;30;20522;-80
2023/10/27 05:04:30;;;;;;;4.20;1.93;;;7.70;99.90;;;;;;9816885;30;20453;-81
2023/10/27 05:09:52;;;;;;;3.00;1.90;;;7.70;99.90;;;;;;9819686;30;20211;-79
2023/10/27 05:15:13;;;;;;;17.50;7.10;;;7.60;1.00;;;;;;9817132;30;20204;-76
2023/10/27 05:20:38;;;;;;;15.17;7.80;;;7.70;15.30;;;;;;9804514;30;20539;-78
2023/10/27 05:25:59;;;;;;;13.10;4.67;;;7.60;99.90;;;;;;9817553;30;20200;-78
2023/10/27 05:31:20;;;;;;;5.03;2.97;;;7.70;99.90;;;;;;9816868;30;20223;-79
2023/10/27 05:36:41;;;;;;;11.30;5.40;;;7.70;99.90;;;;;;9816766;30;20201;-80
2023/10/27 05:42:03;;;;;;;9.70;5.33;;;7.70;1.00;;;;;;9816863;30;20262;-77
2023/10/27 05:47:24;;;;;;;9.97;5.33;;;7.70;1.00;;;;;;9803999;30;20202;-80
2023/10/27 05:52:45;;;;;;;10.20;5.10;;;7.80;1.00;;;;;;9816875;30;20247;-80
2023/10/27 05:58:07;;;;;;;5.87;3.40;;;7.80;1.00;;;;;;9803765;30;20461;-80
2023/10/27 06:03:28;;;;;;;8.70;5.53;;;7.80;1.00;;;;;;9813744;30;20253;-81
2023/10/27 06:08:49;;;;;;;7.57;4.93;;;7.90;1.00;;;;;;9817297;30;20251;-80
2023/10/27 06:14:11;;;;;;;6.70;4.40;;;7.90;1.00;;;;;;9817944;30;20212;-80
2023/10/27 06:19:32;;;;;;;6.70;3.53;;;7.90;1.00;;;;;;9822944;30;20415;-78
2023/10/27 06:24:54;;;;;;;9.17;6.23;;;7.90;1.00;;;;;;9824261;30;20495;-80
2023/10/27 06:30:15;;;;;;;7.17;5.23;;;8.00;1.00;;;;;;9823778;30;20205;-81
2023/10/27 06:35:36;;;;;;;4.67;3.80;;;8.00;99.90;;;;;;9822623;30;20200;-80
2023/10/27 06:40:57;;;;;;;4.13;3.27;;;8.00;99.90;;;;;;9823498;30;20224;-80
2023/10/27 06:46:18;;;;;;;4.97;3.97;;;8.10;99.90;;;;;;9822973;30;20267;-80
2023/10/27 06:51:39;;;;;;;8.77;6.37;;;8.10;45.90;;;;;;9823319;30;20206;-78
2023/10/27 06:57:03;;;;;;;7.03;5.73;;;8.20;1.00;;;;;;9770442;30;20250;-78
2023/10/27 07:02:25;;;;;;;5.87;4.60;;;8.30;1.00;;;;;;9819475;30;20489;-78
2023/10/27 07:07:46;;;;;;;5.33;3.67;;;8.30;1.00;;;;;;9820999;30;20197;-79
2023/10/27 07:13:07;;;;;;;7.77;4.43;;;8.30;99.90;;;;;;9820924;30;20207;-81
2023/10/27 07:18:29;;;;;;;5.90;3.97;;;8.30;99.90;;;;;;9819982;30;20261;-79
2023/10/27 07:23:50;;;;;;;4.20;3.27;;;8.40;1.00;;;;;;9819591;30;20216;-78
2023/10/27 07:29:12;;;;;;;6.43;3.77;;;8.40;1.00;;;;;;9818464;30;20420;-82
2023/10/27 07:34:32;;;;;;;6.73;4.97;;;8.40;99.90;;;;;;9816643;30;20243;-79
2023/10/27 07:39:55;;;;;;;5.27;4.17;;;8.50;99.90;;;;;;9814986;30;20314;-79
2023/10/27 07:45:16;;;;;;;5.63;3.10;;;8.50;1.00;;;;;;9801219;30;20221;-81
2023/10/27 07:50:39;;;;;;;4.33;3.03;;;8.40;1.00;;;;;;9784300;30;20424;-83
2023/10/27 07:56:00;;;;;;;3.53;2.97;;;8.50;1.00;;;;;;9817300;30;20208;-83
2023/10/27 08:01:22;;;;;;;9.40;6.27;;;8.50;1.00;;;;;;9811874;30;20261;-82
2023/10/27 08:06:43;;;;;;;21.47;9.13;;;8.60;1.00;;;;;;9815930;30;20244;-82
2023/10/27 08:12:06;;;;;;;18.77;8.90;;;8.70;1.00;;;;;;9815504;30;20292;-77
2023/10/27 08:17:28;;;;;;;8.97;5.07;;;8.70;1.00;;;;;;9816262;30;20464;-77
2023/10/27 08:22:50;;;;;;;7.30;3.97;;;8.80;1.00;;;;;;9814895;30;20241;-80
2023/10/27 08:28:11;;;;;;;4.70;3.27;;;8.80;99.90;;;;;;9813616;30;20202;-80
2023/10/27 08:33:32;;;;;;;4.87;2.90;;;8.80;1.00;;;;;;9802377;30;20220;-77
2023/10/27 08:38:55;;;;;;;4.27;2.40;;;9.00;1.00;;;;;;9814856;30;20221;-82
2023/10/27 08:44:17;;;;;;;3.60;2.50;;;9.20;1.00;;;;;;9814607;30;20203;-84
2023/10/27 08:49:46;;;;;;;4.03;2.80;;;9.40;99.90;;;;;;9814851;30;20533;-82
2023/10/27 08:55:09;;;;;;;2.90;2.30;;;9.50;8.50;;;;;;9814995;30;20207;-84
2023/10/27 09:00:31;;;;;;;4.27;2.67;;;9.60;1.00;;;;;;9808680;30;20261;-80
2023/10/27 09:05:52;;;;;;;7.47;3.93;;;9.70;1.00;;;;;;9812889;30;20294;-81
2023/10/27 09:11:13;;;;;;;3.63;2.80;;;9.60;1.00;;;;;;9800189;30;20217;-78
2023/10/27 09:16:34;;;;;;;12.60;9.07;;;9.70;1.00;;;;;;9813625;30;20209;-81
2023/10/27 09:21:57;;;;;;;3.93;3.33;;;9.90;99.90;;;;;;9813266;30;20534;-80
2023/10/27 09:27:26;;;;;;;2.13;1.93;;;9.90;99.90;;;;;;9800328;30;20484;-81
2023/10/27 09:32:47;;;;;;;6.00;5.07;;;10.00;45.90;;;;;;9813235;30;20252;-88
2023/10/27 09:38:09;;;;;;;6.87;4.53;;;10.30;1.00;;;;;;9800307;30;20232;-85
2023/10/27 09:43:34;;;;;;;4.27;2.83;;;10.30;1.00;;;;;;9811818;30;20236;-83
2023/10/27 09:48:58;;;;;;;2.97;2.60;;;10.30;1.00;;;;;;9802994;30;20202;-80
2023/10/27 09:54:32;;;;;;;6.13;3.93;;;10.10;1.00;;;;;;9811359;30;20273;-78
2023/10/27 09:59:58;;;;;;;5.90;3.43;;;10.00;1.00;;;;;;9816365;30;20233;-82
2023/10/27 10:05:19;;;;;;;6.33;3.60;;;10.10;1.00;;;;;;9817333;30;20400;-79
2023/10/27 10:10:40;;;;;;;3.27;2.57;;;10.30;1.00;;;;;;9802159;30;20220;-78
2023/10/27 10:16:03;;;;;;;4.70;4.03;;;10.40;1.00;;;;;;9801646;30;20208;-80
2023/10/27 10:21:32;;;;;;;5.83;4.23;;;10.40;1.00;;;;;;9818185;30;20898;-77
2023/10/27 10:27:06;;;;;;;5.47;3.03;;;10.30;1.00;;;;;;9817748;30;20544;-75
2023/10/27 10:32:34;;;;;;;6.57;3.70;;;10.40;1.00;;;;;;9818914;30;20524;-81
2023/10/27 10:37:56;;;;;;;16.60;7.17;;;10.40;1.00;;;;;;9817539;30;20206;-82
2023/10/27 10:43:23;;;;;;;11.23;5.80;;;10.40;1.00;;;;;;9818469;30;20254;-78
2023/10/27 10:48:46;;;;;;;8.87;3.93;;;10.30;1.00;;;;;;9817610;30;20227;-81
2023/10/27 10:54:12;;;;;;;4.60;2.60;;;10.30;1.00;;;;;;9819099;30;20404;-80
2023/10/27 10:59:34;;;;;;;8.67;3.90;;;10.20;1.00;;;;;;9815646;30;20237;-81
2023/10/27 11:04:57;;;;;;;9.80;4.13;;;10.10;1.00;;;;;;9817725;30;20214;-81
2023/10/27 11:10:19;;;;;;;4.97;2.97;;;10.00;1.00;;;;;;9781398;30;20317;-79
2023/10/27 11:15:43;;;;;;;6.13;3.37;;;9.80;1.00;;;;;;9811823;30;20216;-86
2023/10/27 11:21:05;;;;;;;9.80;5.37;;;9.70;1.00;;;;;;9815584;30;20287;-80
2023/10/27 11:26:26;;;;;;;16.57;8.70;;;9.80;1.00;;;;;;9816971;30;20300;-80
2023/10/27 11:31:48;;;;;;;8.73;5.50;;;9.70;1.00;;;;;;9803444;30;20231;-81
2023/10/27 11:37:15;;;;;;;7.17;3.80;;;9.60;1.00;;;;;;9817237;30;20528;-81
2023/10/27 11:42:36;;;;;;;5.13;3.50;;;9.50;1.00;;;;;;9815208;30;20252;-80
2023/10/27 11:47:57;;;;;;;5.30;3.03;;;9.50;50.90;;;;;;9816052;30;20205;-80
2023/10/27 11:53:18;;;;;;;6.10;3.10;;;9.50;1.00;;;;;;9780760;30;20413;-84
2023/10/27 11:58:41;;;;;;;6.53;4.00;;;9.50;5.10;;;;;;9784439;30;20219;-82
2023/10/27 12:04:02;;;;;;;14.10;7.00;;;9.60;1.00;;;;;;9792405;30;20311;-82
2023/10/27 12:09:24;;;;;;;9.97;5.80;;;9.60;1.00;;;;;;9815946;30;20201;-81
2023/10/27 12:14:45;;;;;;;6.40;4.10;;;9.60;1.00;;;;;;9805216;30;20298;-81
2023/10/27 12:20:07;;;;;;;13.80;6.97;;;9.70;1.00;;;;;;9819902;30;20326;-81
2023/10/27 12:25:29;;;;;;;12.83;5.37;;;9.70;1.00;;;;;;9824794;30;20210;-82
2023/10/27 12:30:50;;;;;;;7.30;3.43;;;9.60;1.00;;;;;;9801721;30;20329;-80
2023/10/27 12:36:12;;;;;;;22.17;7.13;;;9.50;1.00;;;;;;9815707;30;20206;-81
2023/10/27 12:41:33;;;;;;;28.47;10.57;;;9.50;1.00;;;;;;9814220;30;20236;-82
2023/10/27 12:46:54;;;;;;;13.03;5.60;;;9.30;1.00;;;;;;9813785;30;20285;-82
2023/10/27 12:52:16;;;;;;;9.67;4.13;;;9.10;69.30;;;;;;9793838;30;20215;-82
2023/10/27 12:57:38;;;;;;;16.73;6.90;;;9.00;99.90;;;;;;9798216;30;20462;-81
2023/10/27 13:03:00;;;;;;;15.60;6.73;;;9.00;1.00;;;;;;9813749;30;20256;-81
2023/10/27 13:08:21;;;;;;;6.23;3.70;;;8.90;1.00;;;;;;9816731;30;20248;-79
2023/10/27 13:13:43;;;;;;;8.93;4.00;;;8.80;99.90;;;;;;9821539;30;20218;-83
2023/10/27 13:19:08;;;;;;;16.53;7.37;;;8.70;1.00;;;;;;9802230;30;20236;-81
2023/10/27 13:24:31;;;;;;;11.87;4.23;;;8.70;1.00;;;;;;9812608;30;20212;-81
2023/10/27 13:29:58;;;;;;;13.83;7.50;;;8.60;1.00;;;;;;9781016;30;20236;-81
2023/10/27 13:35:20;;;;;;;13.30;8.83;;;8.60;99.90;;;;;;9765683;30;20214;-90
2023/10/27 13:40:41;;;;;;;24.67;13.57;;;8.60;24.40;;;;;;9790353;30;20235;-85
2023/10/27 13:46:03;;;;;;;8.60;5.27;;;8.50;99.90;;;;;;9799898;30;20258;-80
2023/10/27 13:51:27;;;;;;;7.33;2.70;;;8.50;99.90;;;;;;9804537;30;20260;-80
2023/10/27 13:56:48;;;;;;;5.57;2.73;;;8.40;1.00;;;;;;9798913;30;20210;-79
2023/10/27 14:02:10;;;;;;;3.33;2.43;;;8.20;99.90;;;;;;9810014;30;20286;-81
2023/10/27 14:07:32;;;;;;;3.87;2.47;;;8.10;99.90;;;;;;9812775;30;20250;-81
2023/10/27 14:12:53;;;;;;;3.83;2.53;;;8.10;1.00;;;;;;9813184;30;20212;-81
2023/10/27 14:18:17;;;;;;;5.03;2.30;;;8.00;1.00;;;;;;9811123;30;20212;-79
2023/10/27 14:23:38;;;;;;;5.30;2.23;;;8.10;99.90;;;;;;9812189;30;20346;-80
2023/10/27 14:29:02;;;;;;;3.73;2.50;;;;;;;;;;9812258;30;20521;-80
2023/10/27 14:34:23;;;;;;;4.17;2.70;;;8.20;99.90;;;;;;9812016;30;20241;-80
2023/10/27 14:39:46;;;;;;;5.00;2.53;;;8.30;99.90;;;;;;9818987;30;20233;-81
2023/10/27 14:45:11;;;;;;;4.27;3.10;;;8.30;99.90;;;;;;9818834;30;20259;-78
2023/10/27 14:50:33;;;;;;;6.23;4.10;;;8.30;99.90;;;;;;9819018;30;20201;-79
2023/10/27 14:55:59;;;;;;;8.53;4.87;;;8.20;99.90;;;;;;9816797;30;20259;-80
2023/10/27 15:01:20;;;;;;;13.77;6.93;;;8.20;1.00;;;;;;9811936;30;20253;-78
2023/10/27 15:06:43;;;;;;;23.80;11.63;;;8.20;99.90;;;;;;9829798;30;20198;-80
2023/10/27 15:12:06;;;;;;;20.67;11.27;;;8.40;1.00;;;;;;9818135;30;20215;-85
2023/10/27 15:17:27;;;;;;;20.07;10.13;;;8.20;1.00;;;;;;9820936;30;20214;-79
2023/10/27 15:22:49;;;;;;;21.63;11.03;;;8.20;1.00;;;;;;9821982;30;20237;-80
2023/10/27 15:28:11;;;;;;;11.93;5.90;;;8.10;1.00;;;;;;9820805;30;20303;-79
2023/10/27 15:33:34;;;;;;;12.63;6.10;;;8.10;1.00;;;;;;9821783;30;20445;-78
2023/10/27 15:38:56;;;;;;;14.03;5.83;;;8.00;1.00;;;;;;9820350;30;20512;-79
2023/10/27 15:44:18;;;;;;;11.90;5.70;;;8.00;1.00;;;;;;9820356;30;20235;-79
2023/10/27 15:49:40;;;;;;;8.20;4.83;;;8.00;11.20;;;;;;9820356;30;20197;-78
2023/10/27 15:55:01;;;;;;;9.03;4.90;;;8.00;1.00;;;;;;9820184;30;20591;-80
2023/10/27 16:00:23;;;;;;;11.90;6.67;;;8.00;1.00;;;;;;9819097;30;20287;-77
2023/10/27 16:05:45;;;;;;;16.43;8.90;;;8.00;1.00;;;;;;9807050;30;20202;-79
2023/10/27 16:11:06;;;;;;;16.77;9.13;;;8.00;1.00;;;;;;9819445;30;20491;-78
2023/10/27 16:16:28;;;;;;;11.47;7.00;;;8.00;1.00;;;;;;9820305;30;20201;-80
2023/10/27 16:21:50;;;;;;;12.97;7.67;;;7.90;99.90;;;;;;9818954;30;20282;-78
2023/10/27 16:27:11;;;;;;;10.80;6.57;;;8.00;99.90;;;;;;9820281;30;20201;-80
2023/10/27 16:32:32;;;;;;;13.07;6.80;;;7.90;1.00;;;;;;9819035;30;20401;-78
2023/10/27 16:37:54;;;;;;;12.57;5.87;;;7.80;1.00;;;;;;9818117;30;20236;-79
2023/10/27 16:43:15;;;;;;;9.83;5.90;;;7.80;99.90;;;;;;9819601;30;20232;-80
2023/10/27 16:48:36;;;;;;;10.47;6.37;;;7.80;1.00;;;;;;9819449;30;20204;-79
2023/10/27 16:53:58;;;;;;;13.73;8.20;;;7.80;1.00;;;;;;9818999;30;20209;-78
2023/10/27 16:59:19;;;;;;;22.20;12.13;;;7.80;99.90;;;;;;9817361;30;20207;-78
2023/10/27 17:04:43;;;;;;;21.33;12.90;;;7.80;19.20;;;;;;9818675;30;20249;-78
2023/10/27 17:10:05;;;;;;;18.27;10.07;;;7.70;1.00;;;;;;9805344;30;20561;-77
2023/10/27 17:15:26;;;;;;;29.87;13.50;;;7.70;1.00;;;;;;9817994;30;20203;-79
2023/10/27 17:20:47;;;;;;;24.40;13.03;;;7.70;1.00;;;;;;9816751;30;20276;-78
2023/10/27 17:26:08;;;;;;;28.73;14.70;;;7.60;1.00;;;;;;9814851;30;20526;-78
2023/10/27 17:31:30;;;;;;;22.00;13.27;;;;;;;;;;9817609;30;20222;-79
2023/10/27 17:36:51;;;;;;;11.70;7.53;;;7.40;1.00;;;;;;9804680;30;20564;-79
2023/10/27 17:42:13;;;;;;;16.27;8.27;;;7.40;1.00;;;;;;9817999;30;20232;-79
2023/10/27 17:47:34;;;;;;;13.27;7.97;;;7.40;1.00;;;;;;9818100;30;20207;-79
2023/10/27 17:52:55;;;;;;;22.80;13.27;;;7.50;1.00;;;;;;9804642;30;20211;-79
2023/10/27 17:58:18;;;;;;;10.60;7.23;;;7.40;99.90;;;;;;9816758;30;20218;-79
2023/10/27 18:03:39;;;;;;;9.97;6.60;;;7.40;1.00;;;;;;9800576;30;20441;-79
2023/10/27 18:09:01;;;;;;;8.90;6.33;;;7.30;1.00;;;;;;9795731;30;20201;-79
2023/10/27 18:14:24;;;;;;;10.27;6.03;;;7.30;1.00;;;;;;9823061;30;20200;-80
2023/10/27 18:19:45;;;;;;;10.47;6.43;;;7.30;91.60;;;;;;9823547;30;20207;-79
2023/10/27 18:25:07;;;;;;;11.00;6.67;;;7.20;1.00;;;;;;9823292;30;20513;-78
2023/10/27 18:30:29;;;;;;;10.83;6.57;;;7.20;99.90;;;;;;9786974;30;20208;-78
2023/10/27 18:35:50;;;;;;;11.97;6.50;;;7.20;1.00;;;;;;9788204;30;20397;-79
2023/10/27 18:41:12;;;;;;;14.33;9.30;;;7.50;1.00;;;;;;9823690;30;20235;-78
2023/10/27 18:46:33;;;;;;;22.13;12.60;;;7.20;1.00;;;;;;9823100;30;20195;-79
2023/10/27 18:51:54;;;;;;;14.20;9.83;;;7.20;99.90;;;;;;9823091;30;20213;-79
2023/10/27 18:57:15;;;;;;;9.57;7.83;;;7.20;1.00;;;;;;9822790;30;20466;-79
2023/10/27 19:02:37;;;;;;;8.70;6.73;;;7.20;1.00;;;;;;9808585;30;20266;-78
2023/10/27 19:07:58;;;;;;;7.40;6.30;;;7.10;1.00;;;;;;9806155;30;20208;-79
2023/10/27 19:13:19;;;;;;;7.63;5.67;;;7.10;1.00;;;;;;9822939;30;20218;-80
2023/10/27 19:18:43;;;;;;;7.30;5.53;;;7.20;11.90;;;;;;9821463;30;20200;-79
2023/10/27 19:24:05;;;;;;;8.87;6.77;;;7.20;1.00;;;;;;9821036;30;20238;-79
2023/10/27 19:29:26;;;;;;;14.53;9.33;;;7.20;99.90;;;;;;9822386;30;20196;-79
2023/10/27 19:34:47;;;;;;;14.30;9.20;;;7.20;99.90;;;;;;9821578;30;20211;-80
2023/10/27 19:40:09;;;;;;;16.70;9.70;;;7.20;99.90;;;;;;9821654;30;20219;-80
2023/10/27 19:45:34;;;;;;;73.20;34.10;;;7.20;1.00;;;;;;9821339;30;20205;-79
2023/10/27 19:50:56;;;;;;;66.33;33.90;;;7.10;1.00;;;;;;9820078;30;20218;-79
2023/10/27 19:56:17;;;;;;;18.90;11.63;;;7.10;99.90;;;;;;9820997;30;20205;-78
2023/10/27 20:01:39;;;;;;;12.57;8.63;;;7.10;1.00;;;;;;9796920;30;20241;-78
2023/10/27 20:07:00;;;;;;;13.83;9.57;;;7.10;1.00;;;;;;9821061;30;20435;-78
2023/10/27 20:12:21;;;;;;;19.90;12.70;;;7.10;1.00;;;;;;9820649;30;20486;-79
2023/10/27 20:17:42;;;;;;;16.43;12.10;;;7.10;1.00;;;;;;9831673;30;20294;-79
2023/10/27 20:23:04;;;;;;;15.03;10.47;;;7.10;1.00;;;;;;9820379;30;20238;-78
2023/10/27 20:28:25;;;;;;;14.40;9.63;;;7.10;1.00;;;;;;9819802;30;20280;-79
2023/10/27 20:33:47;;;;;;;11.70;8.07;;;7.10;1.00;;;;;;9819131;30;20203;-78
2023/10/27 20:39:08;;;;;;;12.17;8.67;;;7.10;1.00;;;;;;9819762;30;20200;-79
2023/10/27 20:44:29;;;;;;;12.60;9.10;;;7.10;99.90;;;;;;9823574;30;20238;-80
2023/10/27 20:49:50;;;;;;;12.27;8.90;;;7.00;1.00;;;;;;9832065;30;20203;-79
2023/10/27 20:55:17;;;;;;;8.23;7.33;;;7.10;1.00;;;;;;9824663;30;20195;-80
2023/10/27 21:00:38;;;;;;;11.33;8.70;;;7.10;19.70;;;;;;9819365;30;20312;-78
2023/10/27 21:06:05;;;;;;;13.27;9.40;;;7.00;1.00;;;;;;9819811;30;20208;-79
2023/10/27 21:11:26;;;;;;;14.27;10.10;;;7.00;99.90;;;;;;9820077;30;20203;-78
2023/10/27 21:16:47;;;;;;;15.60;10.17;;;7.00;99.90;;;;;;9819869;30;20203;-79
2023/10/27 21:22:12;;;;;;;12.87;9.50;;;7.10;99.90;;;;;;9819521;30;20234;-77
2023/10/27 21:27:34;;;;;;;11.17;7.90;;;7.10;99.90;;;;;;9818895;30;20201;-79
2023/10/27 21:32:55;;;;;;;8.80;7.37;;;7.10;1.00;;;;;;9818820;30;20207;-77
2023/10/27 21:38:16;;;;;;;11.93;7.87;;;7.10;1.00;;;;;;9805296;30;20218;-79
2023/10/27 21:43:37;;;;;;;12.70;8.60;;;7.00;99.90;;;;;;9819099;30;20288;-78
2023/10/27 21:48:59;;;;;;;11.20;8.10;;;7.10;1.00;;;;;;9825499;30;20344;-78
2023/10/27 21:54:20;;;;;;;12.40;7.87;;;7.10;1.00;;;;;;9825201;30;20203;-78
2023/10/27 21:59:42;;;;;;;8.57;6.93;;;7.10;1.00;;;;;;9824655;30;20249;-75
2023/10/27 22:05:05;;;;;;;10.77;7.93;;;7.10;1.00;;;;;;9824429;30;20313;-77
2023/10/27 22:10:26;;;;;;;13.93;8.93;;;7.10;1.00;;;;;;9788987;30;20524;-77
2023/10/27 22:15:48;;;;;;;10.53;8.57;;;7.00;1.00;;;;;;9802057;30;20210;-78
2023/10/27 22:21:10;;;;;;;14.00;9.03;;;7.00;99.90;;;;;;9825015;30;20585;-78
2023/10/27 22:26:31;;;;;;;14.57;9.77;;;7.00;1.00;;;;;;9825463;30;20205;-78
2023/10/27 22:31:53;;;;;;;14.90;9.63;;;7.00;1.00;;;;;;9824953;30;20199;-79
2023/10/27 22:37:14;;;;;;;26.90;14.50;;;7.00;1.00;;;;;;9824949;30;20397;-78
2023/10/27 22:42:35;;;;;;;22.50;12.23;;;7.00;99.90;;;;;;9823110;30;20262;-79
2023/10/27 22:47:57;;;;;;;12.63;9.00;;;7.00;1.00;;;;;;9822691;30;20258;-79
2023/10/27 22:53:20;;;;;;;12.30;8.40;;;7.00;1.00;;;;;;9823380;30;20241;-78
2023/10/27 22:58:41;;;;;;;9.53;7.23;;;7.10;8.30;;;;;;9821746;30;20254;-79
2023/10/27 23:04:03;;;;;;;8.47;7.50;;;7.00;99.90;;;;;;9822558;30;20311;-79
2023/10/27 23:09:27;;;;;;;9.27;7.13;;;6.90;55.40;;;;;;9822621;30;20273;-79
2023/10/27 23:14:47;;;;;;;9.47;6.93;;;6.90;99.90;;;;;;9821285;30;20203;-78
2023/10/27 23:20:12;;;;;;;8.10;6.80;;;6.80;1.00;;;;;;9822569;30;20530;-79
2023/10/27 23:25:33;;;;;;;9.23;7.20;;;6.90;99.90;;;;;;9821137;30;20223;-79
2023/10/27 23:30:58;;;;;;;8.67;6.67;;;6.80;1.00;;;;;;9822084;30;20288;-79
2023/10/27 23:36:20;;;;;;;15.23;8.30;;;6.70;99.90;;;;;;9822063;30;20215;-76
2023/10/27 23:41:41;;;;;;;11.97;7.83;;;;;;;;;;9821824;30;20227;-79
2023/10/27 23:47:02;;;;;;;11.93;7.80;;;6.90;1.00;;;;;;9821792;30;20230;-80
2023/10/27 23:52:24;;;;;;;8.70;6.73;;;6.70;1.00;;;;;;9821308;30;20232;-77
2023/10/27 23:57:46;;;;;;;10.33;6.57;;;6.70;99.90;;;;;;9820625;30;20223;-79
